Time;durP1;ratioP1;P1;durP2;ratioP2;P2;SDS_P1;SDS_P2;PMS_P1;PMS_P2;Temp;Humidity;BMP_temperature;BMP_pressure;BME280_temperature;BME280_humidity;BME280_pressure;Samples;Min_cycle;Max_cycle;Signal;HPM_P1;HPM_P2
2023/08/08 00:02:20;;;;;;;;;;;21.30;61.60;;;;;;10330371;28;95678;-62
2023/08/08 00:07:22;;;;;;;;;;;21.30;61.60;;;;;;10331489;28;93744;-62
2023/08/08 00:12:24;;;;;;;;;;;21.20;61.60;;;;;;10331437;28;93661;-62
2023/08/08 00:17:26;;;;;;;;;;;21.20;61.60;;;;;;10330875;28;95425;-62
2023/08/08 00:22:29;;;;;;;;;;;21.20;61.70;;;;;;10296220;28;93995;-62
2023/08/08 00:27:30;;;;;;;;;;;21.20;61.70;;;;;;10328367;28;96099;-61
2023/08/08 00:32:32;;;;;;;;;;;21.20;61.70;;;;;;10330937;28;93957;-64
2023/08/08 00:37:34;;;;;;;;;;;21.20;61.70;;;;;;10329645;28;93456;-64
2023/08/08 00:42:36;;;;;;;;;;;21.20;61.80;;;;;;10311091;28;94483;-65
2023/08/08 00:47:38;;;;;;;;;;;21.20;61.80;;;;;;10329115;28;93363;-64
2023/08/08 00:52:39;;;;;;;;;;;21.20;61.80;;;;;;10328660;28;93410;-64
2023/08/08 00:57:41;;;;;;;;;;;21.10;61.90;;;;;;10328655;28;93445;-64
2023/08/08 01:02:43;;;;;;;;;;;21.10;61.90;;;;;;10311267;28;93761;-64
2023/08/08 01:08:03;;;;;;;;;;;21.10;61.80;;;;;;10329476;28;94513;-64
2023/08/08 01:13:16;;;;;;;;;;;21.10;62.00;;;;;;10328087;28;93404;-66
2023/08/08 01:18:18;;;;;;;;;;;21.10;62.20;;;;;;10308023;28;96223;-65
2023/08/08 01:23:34;;;;;;;;;;;21.10;62.20;;;;;;10327865;28;93410;-65
2023/08/08 01:28:36;;;;;;;;;;;21.10;62.30;;;;;;10309770;28;93305;-66
2023/08/08 01:33:38;;;;;;;;;;;21.10;62.20;;;;;;10328300;28;93394;-64
2023/08/08 01:38:44;;;;;;;;;;;21.10;62.40;;;;;;10310287;28;94391;-64
2023/08/08 01:43:46;;;;;;;;;;;21.10;62.30;;;;;;10327928;28;93771;-64
2023/08/08 01:48:48;;;;;;;;;;;21.00;62.40;;;;;;10310011;28;94362;-64
2023/08/08 01:53:49;;;;;;;;;;;21.00;62.50;;;;;;10311263;28;92710;-65
2023/08/08 01:58:51;;;;;;;;;;;21.00;62.50;;;;;;10327601;28;93468;-64
2023/08/08 02:03:53;;;;;;;;;;;21.00;62.60;;;;;;10308936;28;94460;-64
2023/08/08 02:08:56;;;;;;;;;;;21.00;62.70;;;;;;10324638;28;95633;-64
2023/08/08 02:13:57;;;;;;;;;;;21.00;62.70;;;;;;10309633;28;93810;-65
2023/08/08 02:18:59;;;;;;;;;;;21.00;62.50;;;;;;10326358;28;93386;-64
2023/08/08 02:24:01;;;;;;;;;;;21.00;62.40;;;;;;10332984;28;94959;-64
2023/08/08 02:29:03;;;;;;;;;;;21.00;62.60;;;;;;10334437;28;95457;-65
2023/08/08 02:34:05;;;;;;;;;;;21.00;62.50;;;;;;10334449;28;93476;-65
2023/08/08 02:39:06;;;;;;;;;;;21.00;62.70;;;;;;10332796;28;93533;-64
2023/08/08 02:44:08;;;;;;;;;;;21.00;62.60;;;;;;10334521;28;93684;-65
2023/08/08 02:49:10;;;;;;;;;;;21.00;62.70;;;;;;10316702;28;94909;-64
2023/08/08 02:54:12;;;;;;;;;;;21.00;62.60;;;;;;10333960;28;93495;-65
2023/08/08 02:59:14;;;;;;;;;;;20.90;62.60;;;;;;10332202;28;96853;-65
2023/08/08 03:04:15;;;;;;;;;;;20.90;62.70;;;;;;10333779;28;93464;-64
2023/08/08 03:09:17;;;;;;;;;;;21.00;62.60;;;;;;10331995;28;93802;-64
2023/08/08 03:14:19;;;;;;;;;;;21.00;62.50;;;;;;10332765;28;94132;-65
2023/08/08 03:19:21;;;;;;;;;;;21.00;62.60;;;;;;10332009;28;93704;-63
2023/08/08 03:24:23;;;;;;;;;;;20.90;62.50;;;;;;10331301;28;94438;-65
2023/08/08 03:29:25;;;;;;;;;;;20.90;62.50;;;;;;10331662;28;93366;-65
2023/08/08 03:34:29;;;;;;;;;;;21.00;62.50;;;;;;10332094;28;93069;-64
2023/08/08 03:39:31;;;;;;;;;;;21.00;62.50;;;;;;10313013;28;93480;-64
2023/08/08 03:44:32;;;;;;;;;;;21.00;62.40;;;;;;10331099;28;94707;-65
2023/08/08 03:49:35;;;;;;;;;;;21.00;62.30;;;;;;10310933;28;97336;-64
2023/08/08 03:54:36;;;;;;;;;;;21.00;62.30;;;;;;10329889;28;93501;-65
2023/08/08 03:59:38;;;;;;;;;;;21.00;62.20;;;;;;10331091;28;94477;-65
2023/08/08 04:04:40;;;;;;;;;;;21.00;62.20;;;;;;10331420;28;93459;-64
2023/08/08 04:09:42;;;;;;;;;;;21.00;62.20;;;;;;10330782;28;93392;-64
2023/08/08 04:14:43;;;;;;;;;;;21.00;62.10;;;;;;10330802;28;94432;-65
2023/08/08 04:19:45;;;;;;;;;;;21.00;62.10;;;;;;10330478;28;94141;-65
2023/08/08 04:24:47;;;;;;;;;;;21.00;62.00;;;;;;10330066;28;93154;-64
2023/08/08 04:29:48;;;;;;;;;;;21.00;61.90;;;;;;10328663;28;93475;-65
2023/08/08 04:34:50;;;;;;;;;;;21.00;61.90;;;;;;10330244;28;94050;-65
2023/08/08 04:39:52;;;;;;;;;;;21.00;61.90;;;;;;10326709;28;96934;-65
2023/08/08 04:44:54;;;;;;;;;;;21.00;61.90;;;;;;10326532;28;93040;-64
2023/08/08 04:49:56;;;;;;;;;;;21.00;61.90;;;;;;10766519;22;94466;-55
2023/08/08 04:54:58;;;;;;;;;;;21.00;61.90;;;;;;10328015;28;94426;-55
2023/08/08 05:00:04;;;;;;;;;;;21.00;61.90;;;;;;10326319;28;93043;-55
2023/08/08 05:05:06;;;;;;;;;;;21.00;61.80;;;;;;10309014;28;94598;-55
2023/08/08 05:10:08;;;;;;;;;;;20.90;61.80;;;;;;10326721;28;93419;-56
2023/08/08 05:15:09;;;;;;;;;;;20.90;62.80;;;;;;10327438;28;92484;-55
2023/08/08 05:20:12;;;;;;;;;;;20.90;61.70;;;;;;10326525;28;94376;-55
2023/08/08 05:25:13;;;;;;;;;;;20.90;61.70;;;;;;10326061;28;93657;-55
2023/08/08 05:30:15;;;;;;;;;;;20.90;61.80;;;;;;10306457;28;95833;-55
2023/08/08 05:35:17;;;;;;;;;;;20.90;61.80;;;;;;10325884;28;93422;-54
2023/08/08 05:40:19;;;;;;;;;;;20.90;61.70;;;;;;10309235;28;93237;-55
2023/08/08 05:45:21;;;;;;;;;;;20.80;61.70;;;;;;10308527;28;93465;-55
2023/08/08 05:50:23;;;;;;;;;;;20.80;61.80;;;;;;10307189;28;94267;-55
2023/08/08 05:55:24;;;;;;;;;;;20.80;61.60;;;;;;10309114;28;93513;-55
2023/08/08 06:00:26;;;;;;;;;;;20.80;61.60;;;;;;10331812;28;94581;-55
2023/08/08 06:05:28;;;;;;;;;;;20.80;61.70;;;;;;10332645;28;93682;-47
2023/08/08 06:10:30;;;;;;;;;;;20.80;61.60;;;;;;10332482;28;93473;-47
2023/08/08 06:15:31;;;;;;;;;;;20.80;61.30;;;;;;10332183;28;94603;-44
2023/08/08 06:20:33;;;;;;;;;;;20.70;61.50;;;;;;10330872;28;96755;-46
2023/08/08 06:25:35;;;;;;;;;;;20.70;62.30;;;;;;10334291;28;94764;-50
2023/08/08 06:30:37;;;;;;;;;;;20.80;62.30;;;;;;10246554;22;94205;-63
2023/08/08 06:35:38;;;;;;;;;;;20.80;62.20;;;;;;10247099;28;94764;-65
2023/08/08 06:40:40;;;;;;;;;;;20.80;62.00;;;;;;10242400;28;93537;-65
2023/08/08 06:45:42;;;;;;;;;;;20.80;61.80;;;;;;10168279;28;94671;-64
2023/08/08 06:50:44;;;;;;;;;;;20.90;61.90;;;;;;10169067;28;94326;-65
2023/08/08 06:55:46;;;;;;;;;;;20.90;62.00;;;;;;10190639;28;93249;-64
2023/08/08 07:00:47;;;;;;;;;;;20.90;61.90;;;;;;10191992;28;94422;-64
2023/08/08 07:05:51;;;;;;;;;;;20.90;62.10;;;;;;10191975;28;93940;-64
2023/08/08 07:10:54;;;;;;;;;;;20.90;61.90;;;;;;10202119;28;96667;-65
2023/08/08 07:16:00;;;;;;;;;;;21.00;61.80;;;;;;10209430;28;94273;-68
2023/08/08 07:21:03;;;;;;;;;;;21.00;61.80;;;;;;10171156;28;94285;-65
2023/08/08 07:26:04;;;;;;;;;;;20.90;61.80;;;;;;10213351;28;94512;-66
2023/08/08 07:31:06;;;;;;;;;;;21.00;61.80;;;;;;10211634;28;94895;-65
2023/08/08 07:36:08;;;;;;;;;;;21.00;61.70;;;;;;10207354;28;93693;-65
2023/08/08 07:41:10;;;;;;;;;;;21.00;61.70;;;;;;10197376;28;94153;-65
2023/08/08 07:46:14;;;;;;;;;;;21.00;61.70;;;;;;10206920;28;94076;-65
2023/08/08 07:51:16;;;;;;;;;;;21.00;61.70;;;;;;10208351;28;93744;-65
2023/08/08 07:56:17;;;;;;;;;;;21.10;61.70;;;;;;10208225;28;94454;-65
2023/08/08 08:01:19;;;;;;;;;;;21.00;61.60;;;;;;10204334;28;96545;-65
2023/08/08 08:06:21;;;;;;;;;;;21.10;61.80;;;;;;10206999;28;94575;-65
2023/08/08 08:11:23;;;;;;;;;;;21.10;61.70;;;;;;10203791;28;94543;-65
2023/08/08 08:16:25;;;;;;;;;;;21.10;61.70;;;;;;10191408;28;94485;-64
2023/08/08 08:21:27;;;;;;;;;;;21.10;61.60;;;;;;10188350;28;94224;-65
2023/08/08 08:26:29;;;;;;;;;;;21.10;61.60;;;;;;10205680;28;94173;-65
2023/08/08 08:31:32;;;;;;;;;;;21.10;61.60;;;;;;10189942;28;95813;-67
2023/08/08 08:36:36;;;;;;;;;;;21.20;61.60;;;;;;10181053;28;93487;-65
2023/08/08 08:41:39;;;;;;;;;;;21.20;61.60;;;;;;10202788;28;94252;-64
2023/08/08 08:46:45;;;;;;;;;;;21.10;61.50;;;;;;10184032;28;93940;-64
2023/08/08 08:51:47;;;;;;;;;;;21.20;61.70;;;;;;10196953;28;96984;-62
2023/08/08 08:56:49;;;;;;;;;;;21.20;61.90;;;;;;10191723;28;93425;-65
2023/08/08 09:01:54;;;;;;;;;;;21.20;61.80;;;;;;10186092;28;93626;-64
2023/08/08 09:06:57;;;;;;;;;;;21.20;61.80;;;;;;10167963;28;94096;-64
2023/08/08 09:11:59;;;;;;;;;;;21.20;61.60;;;;;;10192323;28;94894;-65
2023/08/08 09:17:02;;;;;;;;;;;21.20;61.60;;;;;;10174497;28;94472;-65
2023/08/08 09:22:04;;;;;;;;;;;21.20;62.30;;;;;;10200397;28;94013;-64
2023/08/08 09:27:18;;;;;;;;;;;21.20;61.60;;;;;;10221598;28;92741;-63
2023/08/08 09:32:20;;;;;;;;;;;21.20;61.40;;;;;;10191694;28;94404;-64
2023/08/08 09:37:22;;;;;;;;;;;21.20;61.40;;;;;;10195681;28;94250;-64
2023/08/08 09:42:26;;;;;;;;;;;21.20;61.50;;;;;;10199465;28;97195;-63
2023/08/08 09:47:30;;;;;;;;;;;21.20;61.40;;;;;;10190827;28;94446;-64
2023/08/08 09:52:34;;;;;;;;;;;21.30;61.40;;;;;;10203877;28;94342;-64
2023/08/08 09:57:37;;;;;;;;;;;21.30;61.30;;;;;;10183296;23;95228;-51
2023/08/08 10:02:40;;;;;;;;;;;21.30;61.20;;;;;;10152856;28;93570;-44
2023/08/08 10:07:43;;;;;;;;;;;21.20;61.20;;;;;;10129543;28;94639;-48
2023/08/08 10:12:46;;;;;;;;;;;21.20;61.30;;;;;;10127228;28;95167;-45
2023/08/08 10:17:52;;;;;;;;;;;21.20;61.70;;;;;;10163572;28;94376;-45
2023/08/08 10:22:54;;;;;;;;;;;21.20;62.00;;;;;;10142062;28;94196;-45
2023/08/08 10:28:08;;;;;;;;;;;21.20;62.10;;;;;;10129754;28;94757;-47
2023/08/08 10:33:20;;;;;;;;;;;21.20;62.10;;;;;;10112720;28;97021;-47
2023/08/08 10:41:11;;;;;;;;;;;21.20;62.10;;;;;;10453711;27;88644;-47
2023/08/08 10:46:13;;;;;;;;;;;21.30;61.90;;;;;;10393977;27;88906;-46
2023/08/08 10:51:16;;;;;;;;;;;21.30;61.80;;;;;;10362468;27;90564;-47
2023/08/08 10:56:18;;;;;;;;;;;21.40;61.70;;;;;;10367648;27;89405;-49
2023/08/08 11:01:24;;;;;;;;;;;21.40;61.60;;;;;;10358442;27;88921;-47
2023/08/08 11:06:27;;;;;;;;;;;21.30;61.50;;;;;;10377516;27;89182;-48
2023/08/08 11:11:35;;;;;;;;;;;21.30;61.40;;;;;;10375078;27;89868;-44
2023/08/08 11:16:37;;;;;;;;;;;21.20;61.30;;;;;;10361453;28;89161;-44
2023/08/08 11:21:40;;;;;;;;;;;21.20;61.60;;;;;;10362358;27;90296;-46
2023/08/08 11:26:44;;;;;;;;;;;21.20;61.50;;;;;;10387863;27;88777;-49
2023/08/08 11:31:48;;;;;;;;;;;21.20;61.40;;;;;;10381687;27;89166;-46
2023/08/08 11:36:50;;;;;;;;;;;21.20;61.50;;;;;;10365686;27;89430;-47
2023/08/08 11:41:52;;;;;;;;;;;21.30;61.50;;;;;;10376180;27;88691;-50
2023/08/08 11:46:59;;;;;;;;;;;21.30;61.60;;;;;;10360644;27;92222;-47
2023/08/08 11:52:01;;;;;;;;;;;21.30;61.50;;;;;;10349692;27;89960;-44
2023/08/08 11:57:03;;;;;;;;;;;21.30;61.50;;;;;;10350504;28;89412;-45
2023/08/08 12:02:05;;;;;;;;;;;21.30;61.40;;;;;;10347256;28;88497;-45
2023/08/08 12:07:08;;;;;;;;;;;21.30;61.50;;;;;;10344949;27;90906;-49
2023/08/08 12:12:09;;;;;;;;;;;21.30;61.40;;;;;;10373530;28;90021;-45
2023/08/08 12:17:12;;;;;;;;;;;21.30;61.20;;;;;;10363280;28;89907;-44
2023/08/08 12:22:14;;;;;;;;;;;21.30;61.10;;;;;;10343067;28;91495;-45
2023/08/08 12:27:16;;;;;;;;;;;21.30;61.10;;;;;;10362286;28;89443;-50
2023/08/08 12:32:24;;;;;;;;;;;21.40;61.10;;;;;;10352450;27;90169;-47
2023/08/08 12:37:26;;;;;;;;;;;21.40;61.00;;;;;;10367030;28;89165;-46
2023/08/08 12:42:28;;;;;;;;;;;21.40;61.00;;;;;;10347074;28;88990;-47
2023/08/08 12:47:31;;;;;;;;;;;21.40;61.00;;;;;;10366394;28;89660;-45
2023/08/08 12:52:34;;;;;;;;;;;21.40;60.80;;;;;;10353190;28;91569;-50
2023/08/08 12:57:36;;;;;;;;;;;21.40;60.80;;;;;;10354966;28;89294;-45
2023/08/08 13:02:38;;;;;;;;;;;21.50;60.80;;;;;;10365265;28;90360;-48
2023/08/08 13:07:41;;;;;;;;;;;21.50;60.70;;;;;;10343979;28;90208;-48
2023/08/08 13:12:42;;;;;;;;;;;21.40;60.70;;;;;;10347698;28;88940;-48
2023/08/08 13:17:44;;;;;;;;;;;21.40;60.60;;;;;;10327907;28;90728;-50
2023/08/08 13:22:46;;;;;;;;;;;21.50;60.60;;;;;;10343124;28;90911;-48
2023/08/08 13:27:48;;;;;;;;;;;21.40;60.50;;;;;;10335749;28;90079;-47
2023/08/08 13:32:52;;;;;;;;;;;21.50;60.50;;;;;;10361861;27;89719;-49
2023/08/08 13:37:54;;;;;;;;;;;21.50;60.50;;;;;;10330738;28;89529;-49
2023/08/08 13:42:57;;;;;;;;;;;21.50;60.50;;;;;;10342921;28;88881;-50
2023/08/08 13:47:59;;;;;;;;;;;21.50;60.30;;;;;;10353254;27;89960;-47
2023/08/08 13:53:01;;;;;;;;;;;21.50;60.30;;;;;;10348068;28;88604;-44
2023/08/08 13:58:03;;;;;;;;;;;21.50;60.40;;;;;;10354766;28;89840;-45
2023/08/08 14:03:05;;;;;;;;;;;21.50;60.30;;;;;;10337579;28;88738;-46
2023/08/08 14:08:08;;;;;;;;;;;21.60;60.40;;;;;;10357204;28;88288;-45
2023/08/08 14:13:11;;;;;;;;;;;21.50;60.20;;;;;;10367842;28;88242;-47
2023/08/08 14:18:13;;;;;;;;;;;21.50;60.20;;;;;;10372682;28;88223;-45
2023/08/08 14:23:15;;;;;;;;;;;21.50;60.10;;;;;;10333363;28;90157;-47
2023/08/08 14:28:17;;;;;;;;;;;21.50;60.00;;;;;;10354658;28;89353;-44
2023/08/08 14:33:19;;;;;;;;;;;21.50;60.20;;;;;;10337518;28;90109;-51
2023/08/08 14:38:23;;;;;;;;;;;21.50;60.10;;;;;;10346842;28;89217;-46
2023/08/08 14:43:25;;;;;;;;;;;21.50;60.10;;;;;;10361322;28;90835;-47
2023/08/08 14:48:27;;;;;;;;;;;21.50;60.00;;;;;;10373031;27;89881;-43
2023/08/08 14:53:29;;;;;;;;;;;21.50;60.00;;;;;;10346450;28;90497;-48
2023/08/08 14:58:33;;;;;;;;;;;21.50;59.90;;;;;;10335979;28;88626;-44
2023/08/08 15:03:35;;;;;;;;;;;21.50;59.90;;;;;;10359983;28;89467;-49
2023/08/08 15:08:37;;;;;;;;;;;21.50;60.00;;;;;;10346226;28;89913;-45
2023/08/08 15:13:39;;;;;;;;;;;21.40;60.00;;;;;;10342866;28;90646;-49
2023/08/08 15:18:41;;;;;;;;;;;21.50;60.10;;;;;;10316520;28;89637;-52
2023/08/08 15:23:44;;;;;;;;;;;21.40;60.10;;;;;;10346859;28;89201;-43
2023/08/08 15:28:46;;;;;;;;;;;21.40;60.10;;;;;;10360499;28;89285;-47
2023/08/08 15:33:50;;;;;;;;;;;21.40;60.10;;;;;;10343501;28;89638;-47
2023/08/08 15:38:53;;;;;;;;;;;21.40;60.10;;;;;;10350644;28;89090;-46
2023/08/08 15:43:55;;;;;;;;;;;21.40;60.10;;;;;;10353462;28;89197;-44
2023/08/08 15:48:58;;;;;;;;;;;21.40;60.20;;;;;;10344161;28;89858;-45
2023/08/08 15:54:00;;;;;;;;;;;21.40;60.10;;;;;;10342114;28;91778;-45
2023/08/08 15:59:02;;;;;;;;;;;21.40;60.20;;;;;;10360596;28;90168;-43
2023/08/08 16:04:04;;;;;;;;;;;21.40;60.20;;;;;;10323105;28;89971;-46
2023/08/08 16:09:06;;;;;;;;;;;21.40;60.30;;;;;;10361788;28;90478;-46
2023/08/08 16:14:08;;;;;;;;;;;21.30;60.40;;;;;;10337371;28;89286;-47
2023/08/08 16:19:11;;;;;;;;;;;21.30;60.20;;;;;;10348227;28;89198;-44
2023/08/08 16:24:13;;;;;;;;;;;21.30;60.50;;;;;;10336860;28;89110;-46
2023/08/08 16:29:15;;;;;;;;;;;21.30;60.40;;;;;;10324580;28;89151;-46
2023/08/08 16:34:17;;;;;;;;;;;21.30;60.40;;;;;;10324252;28;90652;-45
2023/08/08 16:39:19;;;;;;;;;;;21.30;60.30;;;;;;10312622;28;89643;-44
2023/08/08 16:44:21;;;;;;;;;;;21.30;60.40;;;;;;10341215;28;89020;-44
2023/08/08 16:49:24;;;;;;;;;;;21.20;61.50;;;;;;10355172;28;89040;-46
2023/08/08 16:54:26;;;;;;;;;;;21.30;60.40;;;;;;10332836;28;91043;-45
2023/08/08 16:59:28;;;;;;;;;;;21.20;60.30;;;;;;10332590;28;89665;-46
2023/08/08 17:04:29;;;;;;;;;;;21.20;60.50;;;;;;10320308;28;90163;-43
2023/08/08 17:09:32;;;;;;;;;;;21.20;60.60;;;;;;10336070;28;89977;-45
2023/08/08 17:14:34;;;;;;;;;;;21.20;60.90;;;;;;10343352;28;90491;-46
2023/08/08 17:19:36;;;;;;;;;;;21.20;61.10;;;;;;10339173;27;88964;-43
2023/08/08 17:24:38;;;;;;;;;;;21.10;61.50;;;;;;10315085;28;90220;-49
2023/08/08 17:29:43;;;;;;;;;;;21.10;61.60;;;;;;10319203;28;90499;-46
2023/08/08 17:34:46;;;;;;;;;;;21.10;61.80;;;;;;10333286;28;89849;-48
2023/08/08 17:39:48;;;;;;;;;;;21.10;62.00;;;;;;10323147;28;89433;-45
2023/08/08 17:44:50;;;;;;;;;;;21.10;62.10;;;;;;10337123;28;89396;-45
2023/08/08 17:49:52;;;;;;;;;;;21.10;62.30;;;;;;10317363;28;89770;-47
2023/08/08 17:54:55;;;;;;;;;;;21.10;62.40;;;;;;10333240;28;89808;-44
2023/08/08 17:59:57;;;;;;;;;;;21.10;62.50;;;;;;10319509;28;90480;-45
2023/08/08 18:04:59;;;;;;;;;;;21.10;62.50;;;;;;10322093;28;89509;-45
2023/08/08 18:10:02;;;;;;;;;;;21.10;62.60;;;;;;10321100;28;90397;-45
2023/08/08 18:15:04;;;;;;;;;;;21.10;62.70;;;;;;10348719;28;89030;-44
2023/08/08 18:20:08;;;;;;;;;;;21.10;62.70;;;;;;10331834;28;89931;-43
2023/08/08 18:25:10;;;;;;;;;;;21.10;62.80;;;;;;10357663;28;90656;-45
2023/08/08 18:30:14;;;;;;;;;;;21.10;62.80;;;;;;10344483;28;89172;-48
2023/08/08 18:35:17;;;;;;;;;;;21.10;62.80;;;;;;10343294;28;88331;-46
2023/08/08 18:40:20;;;;;;;;;;;21.10;62.80;;;;;;10327824;28;91712;-46
2023/08/08 18:45:22;;;;;;;;;;;21.10;62.80;;;;;;10350159;28;88994;-48
2023/08/08 18:50:24;;;;;;;;;;;21.10;62.80;;;;;;10329272;28;89039;-47
2023/08/08 18:55:28;;;;;;;;;;;21.10;62.80;;;;;;10350417;28;88855;-44
2023/08/08 19:00:30;;;;;;;;;;;21.10;62.90;;;;;;10356067;27;88996;-44
2023/08/08 19:05:32;;;;;;;;;;;21.10;62.90;;;;;;10314416;28;91151;-44
2023/08/08 19:10:46;;;;;;;;;;;21.10;62.90;;;;;;10347854;28;89341;-44
2023/08/08 19:15:48;;;;;;;;;;;21.10;62.90;;;;;;10351358;28;89223;-43
2023/08/08 19:20:50;;;;;;;;;;;21.10;62.90;;;;;;10353774;28;90026;-47
2023/08/08 19:25:59;;;;;;;;;;;21.10;63.00;;;;;;10331213;28;90754;-47
2023/08/08 19:31:01;;;;;;;;;;;21.10;63.00;;;;;;10347393;28;90053;-58
2023/08/08 19:36:07;;;;;;;;;;;21.10;63.00;;;;;;10352993;28;89343;-46
2023/08/08 19:41:09;;;;;;;;;;;21.10;63.00;;;;;;10356776;28;92171;-43
2023/08/08 19:46:11;;;;;;;;;;;21.10;63.10;;;;;;10339443;28;90978;-44
2023/08/08 19:51:13;;;;;;;;;;;21.20;63.10;;;;;;10355337;28;90466;-50
2023/08/08 19:56:15;;;;;;;;;;;21.20;63.10;;;;;;10352561;28;89881;-48
2023/08/08 20:01:17;;;;;;;;;;;21.10;63.00;;;;;;10361010;28;89592;-44
2023/08/08 20:06:19;;;;;;;;;;;21.10;63.00;;;;;;10342403;28;90171;-46
2023/08/08 20:11:21;;;;;;;;;;;21.10;63.00;;;;;;10320035;28;91216;-45
2023/08/08 20:16:23;;;;;;;;;;;21.10;63.10;;;;;;10333577;28;90698;-44
2023/08/08 20:21:26;;;;;;;;;;;21.10;63.10;;;;;;10356788;28;90191;-48
2023/08/08 20:26:28;;;;;;;;;;;21.10;63.20;;;;;;10339105;28;90480;-45
2023/08/08 20:31:30;;;;;;;;;;;21.10;63.10;;;;;;10341648;28;89323;-46
2023/08/08 20:36:32;;;;;;;;;;;21.10;63.20;;;;;;10362701;28;90352;-44
2023/08/08 20:41:34;;;;;;;;;;;21.10;63.20;;;;;;10327638;28;90431;-46
2023/08/08 20:46:36;;;;;;;;;;;21.10;63.30;;;;;;10327915;28;91935;-45
2023/08/08 20:51:39;;;;;;;;;;;21.10;63.30;;;;;;10353651;28;91405;-43
2023/08/08 20:56:43;;;;;;;;;;;21.10;63.30;;;;;;10317038;28;89795;-43
2023/08/08 21:01:45;;;;;;;;;;;21.10;63.30;;;;;;10326917;28;90152;-45
2023/08/08 21:06:47;;;;;;;;;;;21.00;63.30;;;;;;10319259;28;91497;-45
2023/08/08 21:11:48;;;;;;;;;;;21.00;63.20;;;;;;10337888;28;89281;-43
2023/08/08 21:16:51;;;;;;;;;;;21.00;63.30;;;;;;10327363;28;92138;-46
2023/08/08 21:21:54;;;;;;;;;;;21.00;63.30;;;;;;10332810;28;90026;-45
2023/08/08 21:26:56;;;;;;;;;;;21.00;63.20;;;;;;10337954;28;89493;-43
2023/08/08 21:31:59;;;;;;;;;;;21.00;63.30;;;;;;10311248;28;90370;-47
2023/08/08 21:37:00;;;;;;;;;;;21.00;63.40;;;;;;10323192;28;90331;-45
2023/08/08 21:42:03;;;;;;;;;;;21.00;63.40;;;;;;10342697;28;88602;-45
2023/08/08 21:47:05;;;;;;;;;;;21.00;63.30;;;;;;10354050;28;89942;-43
2023/08/08 21:52:07;;;;;;;;;;;21.00;63.30;;;;;;10338173;28;91489;-46
2023/08/08 21:57:09;;;;;;;;;;;21.00;63.50;;;;;;10364618;28;91161;-45
2023/08/08 22:02:11;;;;;;;;;;;20.90;63.40;;;;;;10346335;28;90596;-43
2023/08/08 22:07:13;;;;;;;;;;;20.90;63.30;;;;;;10330300;28;89412;-45
2023/08/08 22:12:15;;;;;;;;;;;20.90;63.20;;;;;;10331461;28;90684;-44
2023/08/08 22:17:17;;;;;;;;;;;20.90;63.30;;;;;;10346626;28;90369;-46
2023/08/08 22:22:19;;;;;;;;;;;20.90;63.30;;;;;;10331644;28;91138;-44
2023/08/08 22:27:21;;;;;;;;;;;20.90;63.30;;;;;;10334244;28;90562;-45
2023/08/08 22:32:23;;;;;;;;;;;20.90;63.30;;;;;;10336944;28;89265;-48
2023/08/08 22:37:26;;;;;;;;;;;20.90;63.40;;;;;;10343191;28;89175;-47
2023/08/08 22:42:28;;;;;;;;;;;20.90;63.30;;;;;;10338504;28;89402;-48
2023/08/08 22:47:30;;;;;;;;;;;20.90;63.30;;;;;;10338864;28;90898;-44
2023/08/08 22:52:32;;;;;;;;;;;20.90;63.30;;;;;;10341718;28;89100;-43
2023/08/08 22:57:34;;;;;;;;;;;20.90;63.30;;;;;;10335492;28;89569;-46
2023/08/08 23:02:36;;;;;;;;;;;20.90;63.30;;;;;;10334543;28;90092;-48
2023/08/08 23:07:40;;;;;;;;;;;20.90;63.30;;;;;;10350751;28;89293;-46
2023/08/08 23:12:42;;;;;;;;;;;20.90;63.20;;;;;;10352423;28;90721;-44
2023/08/08 23:17:44;;;;;;;;;;;20.90;63.20;;;;;;10332274;28;89321;-45
2023/08/08 23:22:46;;;;;;;;;;;20.90;63.20;;;;;;10324073;28;91676;-46
2023/08/08 23:27:48;;;;;;;;;;;20.90;63.10;;;;;;10345264;28;89870;-43
2023/08/08 23:32:50;;;;;;;;;;;20.80;63.00;;;;;;10304483;28;89762;-45
2023/08/08 23:37:56;;;;;;;;;;;20.90;63.00;;;;;;10326342;28;91229;-46
2023/08/08 23:42:58;;;;;;;;;;;20.90;63.00;;;;;;10346161;28;90072;-43
2023/08/08 23:48:01;;;;;;;;;;;20.90;62.90;;;;;;10353037;28;90065;-43
2023/08/08 23:53:03;;;;;;;;;;;20.90;62.90;;;;;;10351536;28;89330;-43
2023/08/08 23:58:05;;;;;;;;;;;20.90;62.80;;;;;;10337539;28;90501;-46
